Time;durP1;ratioP1;P1;durP2;ratioP2;P2;SDS_P1;SDS_P2;PMS_P1;PMS_P2;Temp;Humidity;BMP_temperature;BMP_pressure;BME280_temperature;BME280_humidity;BME280_pressure;Samples;Min_cycle;Max_cycle;Signal;HPM_P1;HPM_P2
2023/03/13 00:01:36;;;;;;;1.65;1.00;;;;;;;;;;5534737;23;20002;-67
2023/03/13 00:03:46;;;;;;;2.22;1.00;;;;;;;;;;5535037;23;20005;-63
2023/03/13 00:05:57;;;;;;;2.40;1.10;;;;;;;;;;5535170;23;20495;-65
2023/03/13 00:08:08;;;;;;;2.15;1.00;;;;;;;;;;5534465;23;20550;-65
2023/03/13 00:10:18;;;;;;;2.35;1.00;;;;;;;;;;5534927;23;31178;-64
2023/03/13 00:12:28;;;;;;;3.05;1.10;;;;;;;;;;5534904;23;20034;-65
2023/03/13 00:14:39;;;;;;;1.45;0.90;;;;;;;;;;5510076;23;20348;-65
2023/03/13 00:16:49;;;;;;;2.22;0.80;;;;;;;;;;5536180;23;20098;-65
2023/03/13 00:19:00;;;;;;;1.98;1.02;;;;;;;;;;5533714;23;43526;-65
2023/03/13 00:21:10;;;;;;;1.88;1.05;;;;;;;;;;5534724;23;20041;-65
2023/03/13 00:23:21;;;;;;;2.90;1.08;;;;;;;;;;5534591;23;20322;-64
2023/03/13 00:25:31;;;;;;;2.35;1.05;;;;;;;;;;5533631;23;20021;-65
2023/03/13 00:27:42;;;;;;;2.58;1.00;;;;;;;;;;5532927;23;20117;-65
2023/03/13 00:29:52;;;;;;;2.08;0.80;;;;;;;;;;5509382;23;20508;-65
2023/03/13 00:32:03;;;;;;;1.65;0.85;;;;;;;;;;5534902;23;20037;-64
2023/03/13 00:34:13;;;;;;;2.05;0.90;;;;;;;;;;5534070;23;20002;-65
2023/03/13 00:36:26;;;;;;;2.50;0.90;;;;;;;;;;5533910;23;20068;-64
2023/03/13 00:38:37;;;;;;;1.83;0.90;;;;;;;;;;5534567;23;20021;-63
2023/03/13 00:40:47;;;;;;;2.33;1.00;;;;;;;;;;5533987;23;20021;-64
2023/03/13 00:42:58;;;;;;;1.17;0.80;;;;;;;;;;5509295;23;20018;-64
2023/03/13 00:45:09;;;;;;;1.75;0.85;;;;;;;;;;5534942;23;20061;-64
2023/03/13 00:47:19;;;;;;;1.90;0.90;;;;;;;;;;5534973;23;20040;-65
2023/03/13 00:49:30;;;;;;;1.35;0.80;;;;;;;;;;5533806;23;31418;-65
2023/03/13 00:51:41;;;;;;;1.45;0.80;;;;;;;;;;5534152;23;20068;-65
2023/03/13 00:53:52;;;;;;;1.73;0.80;;;;;;;;;;5534276;23;20005;-64
2023/03/13 00:56:08;;;;;;;1.73;0.93;;;;;;;;;;5509254;23;20945;-64
2023/03/13 00:58:18;;;;;;;2.73;0.93;;;;;;;;;;5510351;23;20018;-65
2023/03/13 01:00:29;;;;;;;2.47;1.17;;;;;;;;;;5535355;23;20002;-65
2023/03/13 01:02:42;;;;;;;1.60;0.73;;;;;;;;;;5533639;23;20067;-64
2023/03/13 01:04:53;;;;;;;2.25;0.93;;;;;;;;;;5510087;23;21141;-64
2023/03/13 01:07:03;;;;;;;1.67;0.82;;;;;;;;;;5509119;23;20064;-65
2023/03/13 01:09:15;;;;;;;2.22;0.90;;;;;;;;;;5534123;23;25790;-65
2023/03/13 01:11:28;;;;;;;1.45;0.90;;;;;;;;;;5535966;23;20002;-65
2023/03/13 01:13:38;;;;;;;2.80;0.90;;;;;;;;;;5532036;23;20082;-64
2023/03/13 01:15:49;;;;;;;2.17;0.88;;;;;;;;;;5534199;23;20016;-64
2023/03/13 01:17:59;;;;;;;2.83;1.00;;;;;;;;;;5531245;23;31213;-64
2023/03/13 01:20:10;;;;;;;1.73;0.73;;;;;;;;;;5534525;23;20017;-64
2023/03/13 01:22:20;;;;;;;1.63;0.85;;;;;;;;;;5534088;23;20459;-64
2023/03/13 01:24:31;;;;;;;1.75;0.70;;;;;;;;;;5533670;23;22084;-65
2023/03/13 01:26:41;;;;;;;1.70;0.90;;;;;;;;;;5534028;23;20073;-65
2023/03/13 01:28:52;;;;;;;1.17;0.60;;;;;;;;;;5534345;23;20424;-64
2023/03/13 01:31:21;;;;;;;1.50;0.88;;;;;;;;;;5534163;23;20013;-65
2023/03/13 01:33:31;;;;;;;1.95;0.95;;;;;;;;;;5508275;23;20010;-65
2023/03/13 01:35:42;;;;;;;1.58;0.80;;;;;;;;;;5533361;23;34285;-65
2023/03/13 01:37:52;;;;;;;1.77;0.82;;;;;;;;;;5509314;23;20089;-65
2023/03/13 01:40:03;;;;;;;1.98;0.80;;;;;;;;;;5534078;23;20057;-65
2023/03/13 01:42:14;;;;;;;1.20;0.70;;;;;;;;;;5533876;23;20916;-65
2023/03/13 01:44:25;;;;;;;2.08;0.70;;;;;;;;;;5534410;23;20088;-65
2023/03/13 01:46:36;;;;;;;1.70;0.85;;;;;;;;;;5509104;23;20092;-65
2023/03/13 01:49:22;;;;;;;1.90;0.90;;;;;;;;;;5491243;23;20108;-64
2023/03/13 01:51:45;;;;;;;1.23;0.60;;;;;;;;;;5534649;23;20002;-65
2023/03/13 01:54:05;;;;;;;1.60;0.70;;;;;;;;;;5533163;23;20040;-65
2023/03/13 01:56:19;;;;;;;1.63;0.80;;;;;;;;;;5534901;23;20080;-65
2023/03/13 01:58:30;;;;;;;1.85;0.80;;;;;;;;;;5534001;23;20983;-65
2023/03/13 02:00:42;;;;;;;1.35;0.70;;;;;;;;;;5535234;23;20065;-64
2023/03/13 02:02:56;;;;;;;1.67;0.80;;;;;;;;;;5534991;23;20112;-65
2023/03/13 02:05:06;;;;;;;1.42;0.73;;;;;;;;;;5509096;23;20036;-65
2023/03/13 02:07:21;;;;;;;1.40;0.70;;;;;;;;;;5534291;23;20076;-64
2023/03/13 02:09:33;;;;;;;1.42;0.63;;;;;;;;;;5510264;23;21390;-65
2023/03/13 02:12:08;;;;;;;1.45;0.90;;;;;;;;;;5510225;23;20065;-64
2023/03/13 02:14:20;;;;;;;2.25;0.80;;;;;;;;;;5509487;23;20788;-65
2023/03/13 02:16:32;;;;;;;1.55;0.73;;;;;;;;;;5532312;23;20490;-64
2023/03/13 02:18:43;;;;;;;1.13;0.63;;;;;;;;;;5533095;23;20056;-65
2023/03/13 02:20:57;;;;;;;2.40;0.80;;;;;;;;;;5531521;23;36759;-64
2023/03/13 02:23:12;;;;;;;2.78;0.85;;;;;;;;;;5534918;23;20013;-64
2023/03/13 02:25:22;;;;;;;1.67;0.77;;;;;;;;;;5510970;23;20575;-64
2023/03/13 02:27:33;;;;;;;1.17;0.63;;;;;;;;;;5535647;23;20025;-64
2023/03/13 02:29:44;;;;;;;1.10;0.70;;;;;;;;;;5535839;23;20048;-64
2023/03/13 02:31:55;;;;;;;1.48;0.70;;;;;;;;;;5511192;23;20021;-62
2023/03/13 02:34:05;;;;;;;1.85;0.82;;;;;;;;;;5510319;23;20410;-64
2023/03/13 02:36:16;;;;;;;1.95;0.85;;;;;;;;;;5535343;23;20069;-64
2023/03/13 02:38:29;;;;;;;1.25;0.85;;;;;;;;;;5533824;23;20096;-65
2023/03/13 02:40:42;;;;;;;1.85;0.85;;;;;;;;;;5511232;23;20057;-64
2023/03/13 02:42:55;;;;;;;1.35;0.80;;;;;;;;;;5510668;23;20013;-64
2023/03/13 02:45:06;;;;;;;1.15;0.70;;;;;;;;;;5510738;23;19998;-65
2023/03/13 02:47:19;;;;;;;2.05;0.88;;;;;;;;;;5535936;23;20013;-64
2023/03/13 02:49:30;;;;;;;2.53;0.80;;;;;;;;;;5535093;23;20005;-64
2023/03/13 02:51:44;;;;;;;1.08;0.80;;;;;;;;;;5511196;23;20010;-64
2023/03/13 02:54:01;;;;;;;1.45;0.77;;;;;;;;;;5535484;23;20028;-64
2023/03/13 02:56:13;;;;;;;2.28;0.93;;;;;;;;;;5535351;23;20013;-64
2023/03/13 02:58:24;;;;;;;1.70;1.13;;;;;;;;;;5535261;23;20020;-64
2023/03/13 03:00:35;;;;;;;2.80;1.00;;;;;;;;;;5510873;23;20171;-64
2023/03/13 03:02:45;;;;;;;3.05;0.98;;;;;;;;;;5534789;23;20060;-64
2023/03/13 03:04:55;;;;;;;1.63;0.70;;;;;;;;;;5535442;23;20436;-64
2023/03/13 03:07:06;;;;;;;1.60;0.90;;;;;;;;;;5535575;23;20006;-64
2023/03/13 03:09:18;;;;;;;2.42;0.80;;;;;;;;;;5535463;23;20013;-64
2023/03/13 03:11:28;;;;;;;1.45;0.80;;;;;;;;;;5485796;23;20007;-64
2023/03/13 03:13:44;;;;;;;1.60;0.70;;;;;;;;;;5535599;23;20534;-64
2023/03/13 03:15:55;;;;;;;1.42;0.70;;;;;;;;;;5509928;23;20032;-64
2023/03/13 03:18:05;;;;;;;0.95;0.70;;;;;;;;;;5534756;23;20029;-64
2023/03/13 03:20:16;;;;;;;1.52;0.70;;;;;;;;;;5535565;23;20004;-64
2023/03/13 03:22:27;;;;;;;1.20;0.57;;;;;;;;;;5534655;23;20141;-64
2023/03/13 03:24:37;;;;;;;1.80;0.70;;;;;;;;;;5534394;23;30217;-64
2023/03/13 03:26:48;;;;;;;0.88;0.57;;;;;;;;;;5535546;23;20583;-65
2023/03/13 03:29:10;;;;;;;1.58;0.75;;;;;;;;;;5512766;23;20787;-64
2023/03/13 03:31:21;;;;;;;1.33;0.60;;;;;;;;;;5535482;23;20101;-65
2023/03/13 03:33:31;;;;;;;1.25;0.60;;;;;;;;;;5534586;23;20065;-65
2023/03/13 03:35:42;;;;;;;1.50;0.60;;;;;;;;;;5535672;23;20035;-64
2023/03/13 03:37:53;;;;;;;1.63;0.70;;;;;;;;;;5535153;23;20009;-64
2023/03/13 03:40:07;;;;;;;1.73;0.68;;;;;;;;;;5535019;23;20155;-65
2023/03/13 03:42:18;;;;;;;1.88;0.68;;;;;;;;;;5534761;23;20117;-65
2023/03/13 03:44:29;;;;;;;1.98;0.80;;;;;;;;;;5535121;23;20100;-65
2023/03/13 03:46:42;;;;;;;1.58;0.70;;;;;;;;;;5535141;23;20633;-65
2023/03/13 03:48:53;;;;;;;1.75;0.70;;;;;;;;;;5535381;23;20032;-64
2023/03/13 03:51:05;;;;;;;1.20;0.68;;;;;;;;;;5536688;23;20459;-65
2023/03/13 03:53:18;;;;;;;0.43;0.43;;;;;;;;;;5512318;23;20535;-65
2023/03/13 03:55:28;;;;;;;1.45;0.50;;;;;;;;;;5534332;23;34583;-64
2023/03/13 03:57:39;;;;;;;1.05;0.40;;;;;;;;;;5535900;23;20056;-64
2023/03/13 03:59:53;;;;;;;0.85;0.40;;;;;;;;;;5535658;23;20006;-64
2023/03/13 04:02:05;;;;;;;0.68;0.40;;;;;;;;;;5511311;23;20109;-63
2023/03/13 04:04:17;;;;;;;0.43;0.30;;;;;;;;;;5535450;23;20006;-65
2023/03/13 04:06:31;;;;;;;0.40;0.40;;;;;;;;;;5535708;23;20523;-64
2023/03/13 04:08:41;;;;;;;0.55;0.40;;;;;;;;;;5536296;23;20009;-64
2023/03/13 04:10:54;;;;;;;0.57;0.35;;;;;;;;;;5535950;23;20503;-65
2023/03/13 04:13:07;;;;;;;0.43;0.25;;;;;;;;;;5535579;23;20658;-64
2023/03/13 04:15:17;;;;;;;0.32;0.30;;;;;;;;;;5535635;23;20021;-65
2023/03/13 04:17:28;;;;;;;0.70;0.30;;;;;;;;;;5535651;23;20013;-64
2023/03/13 04:19:38;;;;;;;0.40;0.30;;;;;;;;;;5535940;23;20009;-64
2023/03/13 04:21:49;;;;;;;0.38;0.30;;;;;;;;;;5536171;23;20014;-65
2023/03/13 04:24:01;;;;;;;0.47;0.20;;;;;;;;;;5535827;23;20009;-65
2023/03/13 04:26:16;;;;;;;0.43;0.20;;;;;;;;;;5536193;23;20602;-65
2023/03/13 04:28:27;;;;;;;0.25;0.20;;;;;;;;;;5535703;23;20124;-68
2023/03/13 04:30:38;;;;;;;0.38;0.20;;;;;;;;;;5535966;23;20013;-65
2023/03/13 04:33:08;;;;;;;0.10;0.10;;;;;;;;;;5536238;23;20483;-64
2023/03/13 04:35:37;;;;;;;0.15;0.15;;;;;;;;;;5537043;23;20013;-65
2023/03/13 04:37:59;;;;;;;0.40;0.20;;;;;;;;;;5535334;23;20020;-65
2023/03/13 04:40:30;;;;;;;0.40;0.20;;;;;;;;;;5536578;23;20001;-64
2023/03/13 04:42:59;;;;;;;0.60;0.30;;;;;;;;;;5514367;23;20014;-64
2023/03/13 04:45:35;;;;;;;0.45;0.30;;;;;;;;;;5499224;23;20017;-64
2023/03/13 04:48:04;;;;;;;0.25;0.20;;;;;;;;;;5535438;23;20030;-64
2023/03/13 04:50:15;;;;;;;0.57;0.30;;;;;;;;;;5537334;23;20018;-64
2023/03/13 04:52:45;;;;;;;0.10;0.10;;;;;;;;;;5518617;23;20014;-64
2023/03/13 04:55:16;;;;;;;0.20;0.20;;;;;;;;;;5534960;23;20065;-64
2023/03/13 04:57:37;;;;;;;0.30;0.30;;;;;;;;;;5535635;23;20009;-64
2023/03/13 05:00:00;;;;;;;0.30;0.28;;;;;;;;;;5535998;23;20617;-63
2023/03/13 05:02:11;;;;;;;0.25;0.20;;;;;;;;;;5534189;23;20104;-64
2023/03/13 05:04:22;;;;;;;0.40;0.30;;;;;;;;;;5535384;23;20068;-64
2023/03/13 05:06:49;;;;;;;0.30;0.30;;;;;;;;;;5535421;23;20574;-64
2023/03/13 05:09:15;;;;;;;0.47;0.30;;;;;;;;;;5535722;23;20554;-64
2023/03/13 05:11:54;;;;;;;0.30;0.30;;;;;;;;;;5516345;23;20060;-64
2023/03/13 05:14:23;;;;;;;0.38;0.30;;;;;;;;;;5535545;23;20041;-64
2023/03/13 05:16:50;;;;;;;0.40;0.32;;;;;;;;;;5535649;23;20503;-64
2023/03/13 05:19:30;;;;;;;0.63;0.45;;;;;;;;;;5535499;23;20810;-64
2023/03/13 05:22:03;;;;;;;0.30;0.30;;;;;;;;;;5492517;23;20074;-64
2023/03/13 05:24:40;;;;;;;0.25;0.20;;;;;;;;;;5499089;23;20020;-63
2023/03/13 05:27:09;;;;;;;0.30;0.30;;;;;;;;;;5534803;23;20113;-64
2023/03/13 05:29:42;;;;;;;0.30;0.20;;;;;;;;;;5533450;23;20619;-64
2023/03/13 05:32:00;;;;;;;0.28;0.20;;;;;;;;;;5535794;23;20021;-64
2023/03/13 05:34:22;;;;;;;0.60;0.20;;;;;;;;;;5534039;23;20041;-64
2023/03/13 05:36:55;;;;;;;0.20;0.20;;;;;;;;;;5534568;23;20092;-64
2023/03/13 05:39:21;;;;;;;0.20;0.20;;;;;;;;;;5513622;23;20527;-64
2023/03/13 05:41:31;;;;;;;0.43;0.20;;;;;;;;;;5509112;23;20014;-64
2023/03/13 05:43:42;;;;;;;0.20;0.20;;;;;;;;;;5534238;23;20060;-65
2023/03/13 05:46:12;;;;;;;0.20;0.20;;;;;;;;;;5535355;23;20614;-64
2023/03/13 05:48:32;;;;;;;0.20;0.20;;;;;;;;;;5511597;23;20049;-65
2023/03/13 05:51:03;;;;;;;0.30;0.30;;;;;;;;;;5487153;23;20460;-65
2023/03/13 05:53:43;;;;;;;0.30;0.30;;;;;;;;;;5515439;23;20020;-65
2023/03/13 05:56:02;;;;;;;0.30;0.30;;;;;;;;;;5533491;23;20049;-64
2023/03/13 05:58:35;;;;;;;0.25;0.20;;;;;;;;;;5534424;23;20021;-64
2023/03/13 06:00:52;;;;;;;0.20;0.20;;;;;;;;;;5534676;23;20017;-64
2023/03/13 06:03:20;;;;;;;0.10;0.10;;;;;;;;;;5535784;23;19998;-64
2023/03/13 06:05:33;;;;;;;0.30;0.20;;;;;;;;;;5534565;23;20014;-65
2023/03/13 06:07:45;;;;;;;0.30;0.30;;;;;;;;;;5534185;23;20013;-64
2023/03/13 06:09:56;;;;;;;0.25;0.20;;;;;;;;;;5483347;23;35595;-64
2023/03/13 06:12:08;;;;;;;0.20;0.20;;;;;;;;;;5534550;23;20312;-64
2023/03/13 06:14:19;;;;;;;0.20;0.20;;;;;;;;;;5509061;23;20012;-64
2023/03/13 06:16:59;;;;;;;0.20;0.20;;;;;;;;;;5533745;23;20018;-64
2023/03/13 06:19:11;;;;;;;0.20;0.20;;;;;;;;;;5534695;23;20037;-64
2023/03/13 06:21:22;;;;;;;0.13;0.13;;;;;;;;;;5534461;23;21586;-64
2023/03/13 06:23:32;;;;;;;0.20;0.20;;;;;;;;;;5533517;23;20496;-64
2023/03/13 06:25:46;;;;;;;0.20;0.20;;;;;;;;;;5508144;23;20320;-62
2023/03/13 06:27:56;;;;;;;0.20;0.20;;;;;;;;;;5532375;23;20614;-64
2023/03/13 06:30:09;;;;;;;0.70;0.20;;;;;;;;;;5533835;23;23925;-64
2023/03/13 06:32:19;;;;;;;0.20;0.20;;;;;;;;;;5534213;23;20013;-64
2023/03/13 06:34:29;;;;;;;0.20;0.20;;;;;;;;;;5534650;23;20009;-64
2023/03/13 06:36:40;;;;;;;0.65;0.13;;;;;;;;;;5534116;23;20137;-65
2023/03/13 06:38:50;;;;;;;0.20;0.20;;;;;;;;;;5532904;23;22620;-66
2023/03/13 06:41:01;;;;;;;0.30;0.30;;;;;;;;;;5534211;23;20037;-64
2023/03/13 06:43:11;;;;;;;0.20;0.20;;;;;;;;;;5533817;23;20340;-64
2023/03/13 06:45:21;;;;;;;0.22;0.22;;;;;;;;;;5532503;23;20020;-64
2023/03/13 06:47:32;;;;;;;0.20;0.20;;;;;;;;;;5531521;23;32973;-64
2023/03/13 06:49:42;;;;;;;0.20;0.20;;;;;;;;;;5532491;23;22528;-64
2023/03/13 06:51:56;;;;;;;0.20;0.20;;;;;;;;;;5533443;23;20716;-64
2023/03/13 06:54:06;;;;;;;0.20;0.20;;;;;;;;;;5533130;23;20063;-64
2023/03/13 06:56:17;;;;;;;0.28;0.28;;;;;;;;;;5532130;23;37955;-64
2023/03/13 06:58:27;;;;;;;0.20;0.20;;;;;;;;;;5532889;23;20014;-64
2023/03/13 07:00:39;;;;;;;0.10;0.10;;;;;;;;;;5532320;23;20878;-64
2023/03/13 07:02:50;;;;;;;0.40;0.20;;;;;;;;;;5533365;23;20480;-64
2023/03/13 07:05:04;;;;;;;0.22;0.22;;;;;;;;;;5532844;23;20006;-64
2023/03/13 07:07:15;;;;;;;0.10;0.10;;;;;;;;;;5532522;23;20016;-64
2023/03/13 07:09:25;;;;;;;0.20;0.20;;;;;;;;;;5533878;23;20614;-64
2023/03/13 07:11:36;;;;;;;0.20;0.20;;;;;;;;;;5533790;23;20020;-64
2023/03/13 07:13:46;;;;;;;0.20;0.20;;;;;;;;;;5533944;23;20002;-64
2023/03/13 07:16:05;;;;;;;0.30;0.20;;;;;;;;;;5534595;23;20104;-63
2023/03/13 07:18:16;;;;;;;0.32;0.22;;;;;;;;;;5509049;23;20780;-66
2023/03/13 07:20:26;;;;;;;0.38;0.30;;;;;;;;;;5533725;23;20032;-64
2023/03/13 07:22:37;;;;;;;0.30;0.30;;;;;;;;;;5533993;23;20458;-64
2023/03/13 07:24:47;;;;;;;0.20;0.20;;;;;;;;;;5531449;23;45025;-64
2023/03/13 07:26:58;;;;;;;0.22;0.20;;;;;;;;;;5533012;23;20082;-64
2023/03/13 07:29:08;;;;;;;0.20;0.20;;;;;;;;;;5531510;23;33809;-64
2023/03/13 07:31:20;;;;;;;0.10;0.10;;;;;;;;;;5534724;23;20009;-65
2023/03/13 07:33:31;;;;;;;0.73;0.25;;;;;;;;;;5508568;23;20014;-64
2023/03/13 07:35:49;;;;;;;0.20;0.20;;;;;;;;;;5533880;23;20005;-64
2023/03/13 07:38:00;;;;;;;0.20;0.20;;;;;;;;;;5535586;23;20014;-64
2023/03/13 07:40:11;;;;;;;0.20;0.15;;;;;;;;;;5534628;23;21078;-64
2023/03/13 07:42:21;;;;;;;0.50;0.20;;;;;;;;;;5534380;23;19998;-65
2023/03/13 07:44:32;;;;;;;0.20;0.20;;;;;;;;;;5533220;23;38451;-64
2023/03/13 07:46:42;;;;;;;0.20;0.20;;;;;;;;;;5532594;23;20009;-64
2023/03/13 07:48:54;;;;;;;0.25;0.20;;;;;;;;;;5534465;23;20037;-64
2023/03/13 07:51:07;;;;;;;0.30;0.30;;;;;;;;;;5534347;23;20040;-64
2023/03/13 07:53:20;;;;;;;0.25;0.25;;;;;;;;;;5534682;23;20014;-62
2023/03/13 07:55:30;;;;;;;0.28;0.28;;;;;;;;;;5532899;23;20005;-64
2023/03/13 07:57:40;;;;;;;0.40;0.40;;;;;;;;;;5534891;23;20005;-65
2023/03/13 07:59:51;;;;;;;0.30;0.30;;;;;;;;;;5534039;23;29012;-64
2023/03/13 08:02:02;;;;;;;0.30;0.30;;;;;;;;;;5533434;23;20002;-64
2023/03/13 08:04:15;;;;;;;0.30;0.30;;;;;;;;;;5531519;23;20013;-64
2023/03/13 08:06:29;;;;;;;0.30;0.20;;;;;;;;;;5533874;23;20006;-64
2023/03/13 08:08:39;;;;;;;0.22;0.22;;;;;;;;;;5533903;23;20017;-64
2023/03/13 08:10:50;;;;;;;0.20;0.20;;;;;;;;;;5532728;23;20329;-64
2023/03/13 08:13:00;;;;;;;0.30;0.30;;;;;;;;;;5532805;23;29050;-64
2023/03/13 08:15:11;;;;;;;0.30;0.30;;;;;;;;;;5534937;23;20648;-63
2023/03/13 08:17:21;;;;;;;0.30;0.30;;;;;;;;;;5533949;23;20088;-64
2023/03/13 08:19:31;;;;;;;0.30;0.30;;;;;;;;;;5534703;23;20006;-64
2023/03/13 08:21:42;;;;;;;0.30;0.30;;;;;;;;;;5535261;23;25963;-64
2023/03/13 08:23:54;;;;;;;0.20;0.20;;;;;;;;;;5533050;23;30045;-65
2023/03/13 08:26:07;;;;;;;0.52;0.52;;;;;;;;;;5534132;23;20002;-64
2023/03/13 08:28:17;;;;;;;0.60;0.60;;;;;;;;;;5534623;23;20520;-64
2023/03/13 08:30:27;;;;;;;0.43;0.43;;;;;;;;;;5533886;23;20425;-64
2023/03/13 08:32:38;;;;;;;0.30;0.30;;;;;;;;;;5533289;23;31658;-64
2023/03/13 08:34:48;;;;;;;0.30;0.30;;;;;;;;;;5533894;23;22354;-64
2023/03/13 08:36:58;;;;;;;0.30;0.30;;;;;;;;;;5533456;23;20741;-64
2023/03/13 08:39:15;;;;;;;0.52;0.40;;;;;;;;;;5534629;23;20033;-64
2023/03/13 08:41:28;;;;;;;0.40;0.40;;;;;;;;;;5533836;23;21091;-65
2023/03/13 08:43:38;;;;;;;0.25;0.25;;;;;;;;;;5510463;23;20495;-66
2023/03/13 08:45:54;;;;;;;0.30;0.30;;;;;;;;;;5535035;23;20009;-65
2023/03/13 08:48:05;;;;;;;0.45;0.40;;;;;;;;;;5535649;23;20032;-65
2023/03/13 08:50:15;;;;;;;0.30;0.30;;;;;;;;;;5534703;23;20037;-64
2023/03/13 08:52:26;;;;;;;0.20;0.20;;;;;;;;;;5534729;23;20440;-64
2023/03/13 08:54:36;;;;;;;0.28;0.20;;;;;;;;;;5509996;23;20462;-64
2023/03/13 08:56:47;;;;;;;0.35;0.35;;;;;;;;;;5534263;23;22653;-64
2023/03/13 08:58:59;;;;;;;0.20;0.20;;;;;;;;;;5533009;23;20009;-63
2023/03/13 09:01:14;;;;;;;0.30;0.30;;;;;;;;;;5534341;23;20009;-64
2023/03/13 09:03:25;;;;;;;0.70;0.50;;;;;;;;;;5485342;23;20011;-64
2023/03/13 09:05:36;;;;;;;0.50;0.43;;;;;;;;;;5532860;23;31353;-63
2023/03/13 09:07:47;;;;;;;0.52;0.50;;;;;;;;;;5534851;23;20056;-65
2023/03/13 09:09:57;;;;;;;0.40;0.40;;;;;;;;;;5535841;23;20365;-64
2023/03/13 09:12:08;;;;;;;0.32;0.30;;;;;;;;;;5534030;23;24872;-64
2023/03/13 09:14:18;;;;;;;0.57;0.40;;;;;;;;;;5533290;23;20199;-65
2023/03/13 09:16:30;;;;;;;0.88;0.50;;;;;;;;;;5509012;23;20014;-64
2023/03/13 09:18:41;;;;;;;0.52;0.50;;;;;;;;;;5533831;23;20013;-61
2023/03/13 09:20:52;;;;;;;0.50;0.40;;;;;;;;;;5534147;23;20864;-65
2023/03/13 09:23:02;;;;;;;0.90;0.30;;;;;;;;;;5535881;23;20112;-64
2023/03/13 09:25:13;;;;;;;0.50;0.30;;;;;;;;;;5534440;23;24369;-64
2023/03/13 09:27:23;;;;;;;0.75;0.40;;;;;;;;;;5507728;23;20406;-64
2023/03/13 09:29:38;;;;;;;0.68;0.40;;;;;;;;;;5534147;23;20470;-65
2023/03/13 09:31:49;;;;;;;0.73;0.47;;;;;;;;;;5535441;23;20243;-64
2023/03/13 09:33:59;;;;;;;1.02;0.43;;;;;;;;;;5534835;23;21687;-65
2023/03/13 09:36:10;;;;;;;0.40;0.40;;;;;;;;;;5509205;23;20014;-65
2023/03/13 09:38:21;;;;;;;0.50;0.40;;;;;;;;;;5535945;23;20004;-64
2023/03/13 09:40:46;;;;;;;0.60;0.40;;;;;;;;;;5534979;23;20006;-65
2023/03/13 09:42:59;;;;;;;0.70;0.50;;;;;;;;;;5534861;23;20016;-65
2023/03/13 09:45:26;;;;;;;0.30;0.30;;;;;;;;;;5507916;23;20006;-64
2023/03/13 09:47:48;;;;;;;0.95;0.50;;;;;;;;;;5534395;23;20009;-64
2023/03/13 09:50:06;;;;;;;0.40;0.40;;;;;;;;;;5533117;23;20054;-64
2023/03/13 09:52:21;;;;;;;0.50;0.40;;;;;;;;;;5532663;23;20009;-64
2023/03/13 09:54:41;;;;;;;0.60;0.50;;;;;;;;;;5508088;23;20011;-65
2023/03/13 09:56:59;;;;;;;0.60;0.40;;;;;;;;;;5533145;23;20500;-65
2023/03/13 09:59:20;;;;;;;0.47;0.40;;;;;;;;;;5533312;23;20020;-65
2023/03/13 10:01:32;;;;;;;0.47;0.47;;;;;;;;;;5534220;23;20096;-65
2023/03/13 10:03:52;;;;;;;0.57;0.50;;;;;;;;;;5533650;23;24343;-65
2023/03/13 10:06:23;;;;;;;0.40;0.40;;;;;;;;;;5532936;23;20012;-64
2023/03/13 10:08:34;;;;;;;0.63;0.40;;;;;;;;;;5534399;23;20025;-65
2023/03/13 10:10:49;;;;;;;0.40;0.40;;;;;;;;;;5534114;23;29439;-65
2023/03/13 10:13:14;;;;;;;0.63;0.60;;;;;;;;;;5532854;23;20080;-64
2023/03/13 10:15:42;;;;;;;0.57;0.57;;;;;;;;;;5532047;23;20009;-65
2023/03/13 10:17:53;;;;;;;0.40;0.40;;;;;;;;;;5532823;23;20678;-65
2023/03/13 10:20:16;;;;;;;0.50;0.30;;;;;;;;;;5507338;23;39166;-64
2023/03/13 10:22:28;;;;;;;0.50;0.50;;;;;;;;;;5534689;23;20026;-65
2023/03/13 10:24:53;;;;;;;0.40;0.40;;;;;;;;;;5532557;23;20001;-67
2023/03/13 10:27:03;;;;;;;0.70;0.50;;;;;;;;;;5531926;23;20022;-65
2023/03/13 10:29:22;;;;;;;0.70;0.50;;;;;;;;;;5532940;23;42391;-65
2023/03/13 10:31:35;;;;;;;0.55;0.55;;;;;;;;;;5533925;23;20109;-65
2023/03/13 10:33:45;;;;;;;0.50;0.50;;;;;;;;;;5532119;23;20032;-64
2023/03/13 10:36:05;;;;;;;0.50;0.40;;;;;;;;;;5533265;23;28753;-64
2023/03/13 10:38:20;;;;;;;0.40;0.40;;;;;;;;;;5534331;23;20013;-65
2023/03/13 10:40:31;;;;;;;0.65;0.55;;;;;;;;;;5508276;23;20117;-65
2023/03/13 10:42:44;;;;;;;0.47;0.47;;;;;;;;;;5534495;23;19997;-64
2023/03/13 10:45:00;;;;;;;0.40;0.40;;;;;;;;;;5533672;23;20020;-65
2023/03/13 10:47:12;;;;;;;;;;;;;;;;;;5534863;23;20029;-65
2023/03/13 10:49:23;;;;;;;0.50;0.50;;;;;;;;;;5533749;23;20332;-65
2023/03/13 10:51:38;;;;;;;0.40;0.40;;;;;;;;;;5534925;23;30481;-65
2023/03/13 10:53:50;;;;;;;0.50;0.50;;;;;;;;;;5533641;23;20014;-65
2023/03/13 10:56:10;;;;;;;0.50;0.40;;;;;;;;;;5535291;23;20077;-65
2023/03/13 10:58:33;;;;;;;0.50;0.50;;;;;;;;;;5535083;23;20005;-65
2023/03/13 11:00:43;;;;;;;0.40;0.40;;;;;;;;;;5533028;23;20009;-65
2023/03/13 11:02:55;;;;;;;0.40;0.40;;;;;;;;;;5508337;23;46071;-64
2023/03/13 11:05:25;;;;;;;0.55;0.50;;;;;;;;;;5532832;23;20012;-65
2023/03/13 11:07:37;;;;;;;0.50;0.40;;;;;;;;;;5535370;23;20021;-65
2023/03/13 11:10:17;;;;;;;0.40;0.40;;;;;;;;;;5509044;23;20021;-65
2023/03/13 11:12:28;;;;;;;0.68;0.60;;;;;;;;;;5509772;23;20076;-65
2023/03/13 11:14:38;;;;;;;0.70;0.35;;;;;;;;;;5533381;23;20116;-65
2023/03/13 11:17:10;;;;;;;0.40;0.40;;;;;;;;;;5536112;23;20472;-65
2023/03/13 11:19:34;;;;;;;0.95;0.68;;;;;;;;;;5533827;23;20036;-65
2023/03/13 11:22:14;;;;;;;0.45;0.40;;;;;;;;;;5533938;23;20024;-68
2023/03/13 11:24:53;;;;;;;0.47;0.30;;;;;;;;;;5533556;23;20017;-67
2023/03/13 11:27:42;;;;;;;0.45;0.40;;;;;;;;;;5534862;23;20026;-66
2023/03/13 11:30:03;;;;;;;0.50;0.38;;;;;;;;;;5533634;23;20066;-65
2023/03/13 11:32:22;;;;;;;0.40;0.40;;;;;;;;;;5511271;23;21009;-65
2023/03/13 11:34:44;;;;;;;0.40;0.40;;;;;;;;;;5533892;23;20705;-65
2023/03/13 11:37:12;;;;;;;0.45;0.40;;;;;;;;;;5534352;23;20014;-65
2023/03/13 11:39:41;;;;;;;0.30;0.30;;;;;;;;;;5511885;23;20010;-64
2023/03/13 11:41:57;;;;;;;0.57;0.47;;;;;;;;;;5535612;23;20014;-60
2023/03/13 11:44:07;;;;;;;0.65;0.40;;;;;;;;;;5536436;23;20005;-65
2023/03/13 11:46:26;;;;;;;0.40;0.40;;;;;;;;;;5535014;23;20005;-64
2023/03/13 11:48:54;;;;;;;0.40;0.40;;;;;;;;;;5532713;23;20009;-64
2023/03/13 11:51:28;;;;;;;0.57;0.30;;;;;;;;;;5534664;23;20472;-65
2023/03/13 11:53:52;;;;;;;0.65;0.40;;;;;;;;;;5535032;23;20512;-65
2023/03/13 11:56:16;;;;;;;0.30;0.30;;;;;;;;;;5534487;23;20780;-62
2023/03/13 11:58:55;;;;;;;0.45;0.40;;;;;;;;;;5534143;23;20083;-65
2023/03/13 12:01:06;;;;;;;;;;;;;;;;;;5535709;23;20010;-65
2023/03/13 12:03:33;;;;;;;0.40;0.40;;;;;;;;;;5533519;23;19942;-65
2023/03/13 12:05:50;;;;;;;0.43;0.35;;;;;;;;;;5533697;23;20008;-65
2023/03/13 12:08:03;;;;;;;0.30;0.30;;;;;;;;;;5533512;23;20013;-65
2023/03/13 12:10:35;;;;;;;0.45;0.35;;;;;;;;;;5535197;23;20088;-64
2023/03/13 12:12:49;;;;;;;0.32;0.32;;;;;;;;;;5534343;23;20094;-62
2023/03/13 12:15:36;;;;;;;0.40;0.40;;;;;;;;;;5535488;23;20510;-65
2023/03/13 12:17:49;;;;;;;1.00;0.40;;;;;;;;;;5535620;23;20020;-65
2023/03/13 12:20:15;;;;;;;0.20;0.20;;;;;;;;;;5535593;23;20558;-65
2023/03/13 12:22:37;;;;;;;0.40;0.40;;;;;;;;;;5535312;23;20006;-65
2023/03/13 12:24:59;;;;;;;0.30;0.30;;;;;;;;;;5535825;23;20117;-65
2023/03/13 12:27:15;;;;;;;0.50;0.40;;;;;;;;;;5534368;23;20005;-65
2023/03/13 12:29:36;;;;;;;0.30;0.30;;;;;;;;;;5535538;23;20064;-65
2023/03/13 12:32:13;;;;;;;0.20;0.20;;;;;;;;;;5533530;23;20008;-65
2023/03/13 12:35:00;;;;;;;0.40;0.38;;;;;;;;;;5534302;23;20077;-65
2023/03/13 12:37:22;;;;;;;0.75;0.28;;;;;;;;;;5533818;23;20787;-64
2023/03/13 12:39:50;;;;;;;0.30;0.30;;;;;;;;;;5533195;23;20541;-65
2023/03/13 12:42:51;;;;;;;0.30;0.30;;;;;;;;;;5533629;23;20001;-64
2023/03/13 12:45:03;;;;;;;0.50;0.47;;;;;;;;;;5483914;23;20010;-63
2023/03/13 12:47:32;;;;;;;0.47;0.40;;;;;;;;;;5535626;23;20041;-64
2023/03/13 12:50:06;;;;;;;0.50;0.50;;;;;;;;;;5534919;23;20005;-65
2023/03/13 12:52:31;;;;;;;0.40;0.40;;;;;;;;;;5533693;23;20558;-64
2023/03/13 12:54:51;;;;;;;0.40;0.40;;;;;;;;;;5535254;23;20005;-65
2023/03/13 12:57:12;;;;;;;0.40;0.40;;;;;;;;;;5534940;23;20014;-69
2023/03/13 12:59:32;;;;;;;0.40;0.40;;;;;;;;;;5534562;23;20460;-65
2023/03/13 13:01:45;;;;;;;0.40;0.40;;;;;;;;;;5532679;23;20084;-65
2023/03/13 13:04:04;;;;;;;0.60;0.30;;;;;;;;;;5532250;23;20129;-65
2023/03/13 13:06:15;;;;;;;0.40;0.40;;;;;;;;;;5534147;23;20013;-64
2023/03/13 13:08:26;;;;;;;0.38;0.38;;;;;;;;;;5507987;23;20938;-65
2023/03/13 13:10:40;;;;;;;0.50;0.50;;;;;;;;;;5532521;23;20076;-65
2023/03/13 13:13:12;;;;;;;0.50;0.40;;;;;;;;;;5534678;23;20017;-65
2023/03/13 13:15:26;;;;;;;0.30;0.30;;;;;;;;;;5534336;23;20063;-65
2023/03/13 13:17:40;;;;;;;0.30;0.20;;;;;;;;;;5531908;23;20006;-64
2023/03/13 13:19:51;;;;;;;0.38;0.32;;;;;;;;;;5534695;23;20658;-65
2023/03/13 13:22:35;;;;;;;0.30;0.30;;;;;;;;;;5509114;23;20007;-65
2023/03/13 13:24:50;;;;;;;0.30;0.30;;;;;;;;;;5533976;23;20005;-65
2023/03/13 13:27:01;;;;;;;0.40;0.20;;;;;;;;;;5535334;23;20043;-65
2023/03/13 13:29:11;;;;;;;0.20;0.20;;;;;;;;;;5532200;23;30445;-65
2023/03/13 13:31:46;;;;;;;0.28;0.28;;;;;;;;;;5533419;23;20111;-63
2023/03/13 13:33:56;;;;;;;0.30;0.30;;;;;;;;;;5533258;23;20016;-62
2023/03/13 13:36:22;;;;;;;0.30;0.30;;;;;;;;;;5533940;23;20021;-65